Aérodrome :
LOGIN :

S'inscrire | Disclaimer

   EN    FR    IT 

 










Légende :    VFR   VFR Marginal   IFR   IFR Intensif   IFR Très Intensif
Visi : 
Plafond : 
>= 8 km
>= 3000ft
5 à 8 km
1000 à 3000 ft
1500m à 5 km
500 à 1000 ft
800 à 1500m
200 à 500 ft
< 800m
< 200 ft
Symboles :   Orages  Brouillard  Fortes neiges  Fortes précipitations  Vent > 20 kt
SIGMETs :   Divers  Orages  Givrage  Turbulence  Onde Orograph.  Cendres Volcan.







- Altitude de l'aérodrome : 359 ft
- Code IATA : BVA
- Voir les cartes d'approche


LFOB - Beauvais

DERNIER METAR :
  • 161630Z AUTO 21004KT CAVOK 22/11 Q1017 NOSIG

METARs EXPIRÉS :
  • 161600Z AUTO 21004KT CAVOK 23/11 Q1017 NOSIG
  • 161530Z AUTO 22005KT CAVOK 24/11 Q1017 NOSIG
  • 161500Z AUTO 21005KT 160V230 CAVOK 24/11 Q1017 NOSIG
  • 161430Z AUTO 23005KT 200V270 9999 3200 NSC 24/11 Q1017 NOSIG
  • 161400Z AUTO 21006KT 180V240 9999 2500 NSC 24/11 Q1017 NOSIG

TAF TAF LFOB
Valide du 16 à 12h jusqu'au 17 à 12h UTC


161100Z 1612/1712 19010KT CAVOK
BECMG 1616/1618 VRB02KT
BECMG 1622/1624 3000 BR
BECMG 1700/1703 1200 BKN003
PROB40
TEMPO 1700/1708 0200 FG VV///
BECMG 1709/1711 9999 NSW NSC
ATIS : +33 3 44 11 49 28
Pas de NOTAMs connus pour ce terrain.



MET'MAP, la Météo Aéronautique d'un coup d'oeil ! - Copyright ORBIFLY Décembre 2007 - Disclaimer

ORBIFLY MET'MAP TEAM :

Programmation & Développement : Alexandra Zaïnal
Conception & Développement : Baudouin d'Aumeries
Co-Programmation & Développement : Marc-Olivier Méhu
Soutien technique & logistique : Manuel Goepfert

Contact : metmap@orbifly.com




SOURCES & CREDITS :

   NOAA